createdAt,value
2018-06-29T00:01:32.530Z,3.20
2018-06-29T00:04:01.938Z,3.10
2018-06-29T00:06:31.395Z,3.00
2018-06-29T00:09:00.962Z,3.30
2018-06-29T00:11:30.210Z,3.37
2018-06-29T00:13:59.353Z,3.20
2018-06-29T00:16:29.853Z,2.90
2018-06-29T00:19:01.170Z,3.00
2018-06-29T00:21:30.161Z,2.87
2018-06-29T00:24:00.346Z,2.60
2018-06-29T00:26:29.696Z,2.60
2018-06-29T00:29:01.322Z,2.83
2018-06-29T00:31:30.669Z,3.03
2018-06-29T00:34:00.051Z,3.40
2018-06-29T00:36:29.088Z,2.53
2018-06-29T00:38:58.345Z,2.70
2018-06-29T00:41:27.398Z,3.07
2018-06-29T00:43:56.612Z,3.00
2018-06-29T00:46:26.700Z,3.07
2018-06-29T00:48:56.074Z,2.83
2018-06-29T00:51:25.362Z,2.90
2018-06-29T00:53:54.778Z,2.80
2018-06-29T00:56:24.080Z,2.97
2018-06-29T00:59:01.046Z,2.80
2018-06-29T01:01:36.825Z,3.37
2018-06-29T01:04:07.005Z,3.20
2018-06-29T01:06:37.658Z,2.97
2018-06-29T01:09:08.069Z,3.00
2018-06-29T01:11:37.264Z,3.10
2018-06-29T01:14:06.715Z,2.80
2018-06-29T01:16:36.824Z,3.03
2018-06-29T01:19:06.510Z,3.20
2018-06-29T01:21:36.265Z,3.20
2018-06-29T01:24:06.357Z,3.23
2018-06-29T01:26:36.336Z,3.20
2018-06-29T01:29:05.388Z,2.80
2018-06-29T01:31:34.824Z,3.07
2018-06-29T01:34:03.945Z,2.97
2018-06-29T01:36:32.929Z,3.00
2018-06-29T01:39:02.854Z,2.70
2018-06-29T01:41:32.359Z,2.70
2018-06-29T01:44:01.763Z,2.90
2018-06-29T01:46:31.168Z,2.97
2018-06-29T01:49:00.673Z,2.97
2018-06-29T01:51:30.664Z,2.87
2018-06-29T01:53:59.687Z,2.83
2018-06-29T01:56:29.652Z,2.80
2018-06-29T01:58:59.043Z,2.63
2018-06-29T02:01:28.359Z,3.00
2018-06-29T02:03:57.627Z,3.10
2018-06-29T02:06:27.043Z,2.63
2018-06-29T02:08:56.438Z,2.87
2018-06-29T02:11:25.719Z,2.97
2018-06-29T02:13:55.084Z,2.90
2018-06-29T02:16:24.168Z,2.90
2018-06-29T02:18:53.423Z,3.20
2018-06-29T02:21:22.677Z,2.83
2018-06-29T02:23:51.792Z,3.00
2018-06-29T02:26:21.389Z,3.27
2018-06-29T02:28:50.304Z,3.00
2018-06-29T02:31:19.296Z,3.37
2018-06-29T02:33:48.825Z,2.77
2018-06-29T02:36:18.149Z,3.00
2018-06-29T02:38:47.201Z,3.00
2018-06-29T02:41:16.541Z,3.57
2018-06-29T02:43:45.590Z,3.40
2018-06-29T02:46:15.045Z,3.40
2018-06-29T02:48:44.377Z,3.40
2018-06-29T02:51:13.534Z,2.97
2018-06-29T02:53:42.576Z,3.13
2018-06-29T02:56:11.504Z,3.40
2018-06-29T02:58:40.749Z,2.80
2018-06-29T03:01:10.144Z,2.90
2018-06-29T03:03:39.617Z,3.00
2018-06-29T03:06:08.931Z,2.80
2018-06-29T03:08:38.008Z,3.00
2018-06-29T03:11:07.179Z,3.10
2018-06-29T03:13:36.622Z,3.10
2018-06-29T03:16:05.580Z,3.10
2018-06-29T03:18:35.107Z,3.00
2018-06-29T03:21:04.508Z,2.70
2018-06-29T03:23:33.751Z,3.43
2018-06-29T03:26:03.086Z,2.90
2018-06-29T03:28:32.353Z,3.20
2018-06-29T03:31:02.814Z,3.10
2018-06-29T03:33:32.183Z,2.90
2018-06-29T03:36:01.489Z,2.90
2018-06-29T03:38:30.867Z,2.83
2018-06-29T03:41:00.791Z,3.33
2018-06-29T03:43:30.143Z,3.10
2018-06-29T03:46:00.400Z,2.80
2018-06-29T03:48:30.364Z,3.00
2018-06-29T03:50:59.939Z,2.90
2018-06-29T03:53:29.294Z,3.10
2018-06-29T03:55:58.699Z,2.80
2018-06-29T03:58:28.052Z,2.80
2018-06-29T04:00:57.572Z,3.03
2018-06-29T04:03:27.104Z,2.83
2018-06-29T04:05:56.715Z,2.70
2018-06-29T04:08:26.091Z,3.20
2018-06-29T04:10:55.963Z,2.90
2018-06-29T04:13:25.304Z,2.83
2018-06-29T04:15:54.679Z,3.10
2018-06-29T04:18:24.007Z,2.83
2018-06-29T04:20:53.360Z,2.60
2018-06-29T04:23:22.698Z,3.27
2018-06-29T04:25:52.048Z,2.90
2018-06-29T04:28:21.027Z,2.60
2018-06-29T04:30:50.238Z,2.90
2018-06-29T04:33:19.635Z,2.83
2018-06-29T04:35:49.362Z,2.93
2018-06-29T04:38:18.166Z,2.50
2018-06-29T04:40:47.158Z,2.60
2018-06-29T04:43:17.050Z,2.70
2018-06-29T04:45:46.581Z,2.70
2018-06-29T04:48:15.986Z,3.07
2018-06-29T04:50:45.244Z,2.70
2018-06-29T04:53:14.295Z,3.07
2018-06-29T04:55:43.578Z,2.77
2018-06-29T04:58:12.938Z,3.20
2018-06-29T05:00:43.332Z,2.97
2018-06-29T05:03:12.548Z,3.07
2018-06-29T05:05:42.190Z,3.10
2018-06-29T05:08:11.510Z,2.60
2018-06-29T05:10:40.831Z,2.80
2018-06-29T05:13:10.461Z,2.60
2018-06-29T05:15:39.760Z,2.80
2018-06-29T05:18:09.443Z,2.83
2018-06-29T05:20:38.758Z,3.23
2018-06-29T05:23:08.069Z,2.60
2018-06-29T05:25:37.075Z,2.70
2018-06-29T05:28:06.279Z,3.00
2018-06-29T05:30:35.360Z,2.73
2018-06-29T05:33:04.578Z,3.00
2018-06-29T05:35:33.852Z,2.67
2018-06-29T05:38:03.407Z,2.63
2018-06-29T05:40:33.439Z,2.70
2018-06-29T05:43:02.789Z,2.70
2018-06-29T05:45:31.867Z,2.90
2018-06-29T05:48:01.207Z,2.70
2018-06-29T05:50:30.579Z,2.80
2018-06-29T05:52:59.859Z,2.60
2018-06-29T05:55:29.216Z,2.60
2018-06-29T05:57:59.501Z,2.37
2018-06-29T06:00:28.540Z,2.80
2018-06-29T06:02:57.765Z,2.20
2018-06-29T06:05:27.285Z,2.50
2018-06-29T06:07:56.697Z,2.67
2018-06-29T06:10:25.918Z,2.17
2018-06-29T06:12:54.908Z,2.17
2018-06-29T06:15:23.746Z,2.30
2018-06-29T06:17:52.942Z,2.20
2018-06-29T06:20:22.345Z,2.80
2018-06-29T06:22:51.624Z,2.10
2018-06-29T06:25:21.008Z,2.20
2018-06-29T06:27:50.434Z,2.40
2018-06-29T06:30:19.861Z,2.43
2018-06-29T06:32:49.253Z,2.40
2018-06-29T06:35:18.558Z,2.70
2018-06-29T06:37:48.149Z,2.30
2018-06-29T06:40:17.540Z,2.00
2018-06-29T06:42:46.843Z,2.47
2018-06-29T06:45:16.239Z,2.43
2018-06-29T06:47:45.666Z,2.10
2018-06-29T06:50:15.228Z,2.20
2018-06-29T06:52:44.768Z,2.50
2018-06-29T06:55:14.110Z,3.17
2018-06-29T06:57:43.312Z,2.33
2018-06-29T07:00:12.676Z,2.20
2018-06-29T07:02:41.961Z,2.47
2018-06-29T07:05:11.997Z,2.23
2018-06-29T07:07:42.635Z,2.67
2018-06-29T07:10:13.777Z,2.07
2018-06-29T07:12:43.299Z,2.10
2018-06-29T07:15:15.252Z,2.20
2018-06-29T07:17:45.976Z,2.10
2018-06-29T07:20:21.720Z,2.27
2018-06-29T07:22:52.067Z,2.83
2018-06-29T07:25:21.181Z,2.10
2018-06-29T07:27:50.067Z,1.93
2018-06-29T07:30:20.023Z,2.30
2018-06-29T07:32:49.465Z,2.13
2018-06-29T07:35:33.856Z,1.90
2018-06-29T07:38:02.773Z,1.90
2018-06-29T07:43:14.009Z,1.80
2018-06-29T07:45:43.779Z,2.00
2018-06-29T07:48:12.976Z,2.07
2018-06-29T07:50:42.445Z,1.90
2018-06-29T07:53:12.986Z,1.80
2018-06-29T07:55:43.303Z,1.90
2018-06-29T07:58:12.810Z,2.47
2018-06-29T08:00:42.110Z,1.87
2018-06-29T08:03:11.865Z,2.20
2018-06-29T08:05:41.349Z,2.17
2018-06-29T08:08:11.656Z,1.90
2018-06-29T08:10:41.158Z,2.03
2018-06-29T08:13:10.565Z,1.97
2018-06-29T08:15:39.917Z,1.80
2018-06-29T08:18:09.276Z,1.50
2018-06-29T08:20:38.680Z,1.87
2018-06-29T08:23:08.087Z,1.80
2018-06-29T08:25:37.549Z,1.90
2018-06-29T08:28:07.220Z,2.07
2018-06-29T08:30:36.557Z,2.17
2018-06-29T08:33:06.536Z,2.00
2018-06-29T08:35:37.112Z,2.00
2018-06-29T08:38:06.619Z,2.10
2018-06-29T08:40:36.762Z,2.10
2018-06-29T08:43:07.181Z,2.10
2018-06-29T08:45:36.629Z,1.77
2018-06-29T08:48:05.735Z,1.70
2018-06-29T08:50:35.075Z,1.97
2018-06-29T08:53:04.461Z,2.00
2018-06-29T08:55:36.761Z,2.13
2018-06-29T08:58:06.884Z,2.13
2018-06-29T09:00:36.249Z,1.83
2018-06-29T09:03:06.716Z,2.40
2018-06-29T09:05:36.623Z,2.60
2018-06-29T09:08:10.252Z,1.80
2018-06-29T09:10:39.934Z,1.80
2018-06-29T09:13:09.336Z,2.03
2018-06-29T09:15:38.677Z,2.00
2018-06-29T09:18:07.659Z,1.73
2018-06-29T09:20:36.909Z,1.97
2018-06-29T09:23:07.289Z,2.20
2018-06-29T09:25:37.380Z,1.60
2018-06-29T09:28:07.511Z,1.80
2018-06-29T09:30:36.951Z,1.97
2018-06-29T09:33:06.769Z,1.60
2018-06-29T09:35:36.254Z,2.00
2018-06-29T09:38:05.635Z,2.47
2018-06-29T09:40:34.905Z,1.80
2018-06-29T09:43:05.024Z,1.87
2018-06-29T09:45:34.443Z,2.20
2018-06-29T09:48:04.344Z,1.77
2018-06-29T09:50:33.584Z,2.20
2018-06-29T09:53:05.583Z,1.93
2018-06-29T09:55:36.599Z,1.83
2018-06-29T09:58:07.063Z,1.70
2018-06-29T10:00:36.524Z,1.80
2018-06-29T10:03:07.830Z,2.00
2018-06-29T10:05:37.279Z,2.00
2018-06-29T10:08:06.973Z,2.03
2018-06-29T10:10:38.053Z,2.00
2018-06-29T10:13:07.674Z,1.70
2018-06-29T10:15:37.648Z,2.00
2018-06-29T10:18:07.477Z,2.00
2018-06-29T10:20:36.703Z,2.17
2018-06-29T10:23:06.690Z,1.80
2018-06-29T10:25:36.450Z,2.10
2018-06-29T10:28:09.372Z,2.13
2018-06-29T10:30:39.556Z,2.00
2018-06-29T10:33:08.908Z,1.93
2018-06-29T10:35:38.465Z,2.07
2018-06-29T10:38:08.578Z,2.00
2018-06-29T10:40:41.131Z,1.97
2018-06-29T10:43:10.660Z,2.00
2018-06-29T10:45:40.403Z,2.10
2018-06-29T10:48:10.805Z,1.97
2018-06-29T10:50:39.952Z,1.80
2018-06-29T10:53:10.007Z,2.00
2018-06-29T10:55:39.769Z,1.90
2018-06-29T10:58:09.532Z,2.40
2018-06-29T11:00:43.701Z,2.00
2018-06-29T11:03:13.744Z,1.83
2018-06-29T11:05:43.128Z,1.60
2018-06-29T11:08:12.525Z,2.00
2018-06-29T11:10:42.064Z,2.43
2018-06-29T11:13:11.462Z,1.73
2018-06-29T11:15:41.676Z,2.20
2018-06-29T11:18:11.877Z,2.10
2018-06-29T11:20:42.324Z,2.00
2018-06-29T11:23:11.788Z,2.53
2018-06-29T11:25:41.378Z,1.93
2018-06-29T11:28:10.488Z,1.83
2018-06-29T11:30:39.877Z,1.80
2018-06-29T11:33:09.340Z,1.90
2018-06-29T11:35:39.194Z,2.00
2018-06-29T11:38:09.139Z,1.93
2018-06-29T11:40:39.041Z,2.23
2018-06-29T11:43:08.469Z,2.27
2018-06-29T11:45:37.952Z,2.23
2018-06-29T11:48:07.366Z,2.00
2018-06-29T11:50:36.731Z,2.10
2018-06-29T11:53:05.789Z,2.27
2018-06-29T11:55:35.543Z,1.80
2018-06-29T11:58:06.006Z,2.30
2018-06-29T12:00:35.719Z,2.10
2018-06-29T12:03:05.669Z,2.30
2018-06-29T12:05:35.872Z,2.00
2018-06-29T12:08:13.127Z,2.13
2018-06-29T12:10:42.504Z,2.00
2018-06-29T12:13:11.736Z,2.13
2018-06-29T12:15:41.388Z,1.97
2018-06-29T12:18:11.063Z,1.90
2018-06-29T12:20:42.051Z,2.10
2018-06-29T12:23:11.735Z,2.20
2018-06-29T12:25:42.863Z,2.03
2018-06-29T12:28:12.838Z,1.80
2018-06-29T12:30:42.546Z,1.77
2018-06-29T12:33:12.645Z,2.20
2018-06-29T12:35:45.000Z,1.60
2018-06-29T12:38:16.308Z,1.47
2018-06-29T12:40:45.869Z,1.77
2018-06-29T12:43:15.516Z,1.60
2018-06-29T12:45:44.996Z,2.07
2018-06-29T12:48:16.272Z,2.20
2018-06-29T12:50:45.706Z,2.17
2018-06-29T12:53:15.942Z,1.97
2018-06-29T12:55:45.035Z,1.70
2018-06-29T12:58:14.264Z,1.80
2018-06-29T13:00:43.946Z,1.70
2018-06-29T13:03:13.741Z,1.73
2018-06-29T13:05:43.979Z,2.30
2018-06-29T13:08:13.280Z,2.10
2018-06-29T13:10:42.916Z,2.10
2018-06-29T13:13:12.357Z,2.10
2018-06-29T13:15:41.900Z,2.10
2018-06-29T13:18:11.560Z,1.80
2018-06-29T13:20:40.996Z,1.93
2018-06-29T13:23:10.934Z,1.77
2018-06-29T13:25:40.843Z,1.97
2018-06-29T13:28:13.855Z,1.87
2018-06-29T13:30:43.312Z,1.93
2018-06-29T13:33:12.745Z,1.90
2018-06-29T13:35:54.024Z,1.77
2018-06-29T13:38:45.244Z,1.80
2018-06-29T13:41:15.618Z,1.63
2018-06-29T13:43:45.290Z,1.80
2018-06-29T13:46:15.271Z,2.20
2018-06-29T13:48:44.352Z,2.80
2018-06-29T13:51:13.676Z,2.53
2018-06-29T13:53:43.118Z,1.90
2018-06-29T13:56:20.307Z,1.90
2018-06-29T13:59:14.384Z,2.10
2018-06-29T14:01:54.724Z,2.33
2018-06-29T14:04:44.772Z,2.17
2018-06-29T14:07:15.022Z,2.10
2018-06-29T14:09:46.401Z,2.03
2018-06-29T14:12:15.894Z,1.90
2018-06-29T14:14:47.468Z,2.00
2018-06-29T14:17:19.142Z,2.43
2018-06-29T14:19:48.589Z,2.10
2018-06-29T14:22:18.743Z,2.43
2018-06-29T14:24:49.325Z,2.50
2018-06-29T14:27:18.946Z,1.70
2018-06-29T14:29:48.422Z,2.33
2018-06-29T14:32:17.618Z,2.07
2018-06-29T14:34:47.098Z,1.70
2018-06-29T14:37:18.006Z,1.97
2018-06-29T14:39:47.709Z,1.93
2018-06-29T14:42:17.861Z,1.70
2018-06-29T14:44:47.985Z,1.60
2018-06-29T14:47:19.089Z,1.80
2018-06-29T14:49:48.602Z,1.90
2018-06-29T14:52:19.405Z,1.70
2018-06-29T14:54:48.802Z,1.70
2018-06-29T14:57:18.208Z,1.90
2018-06-29T14:59:47.641Z,1.90
2018-06-29T15:02:18.273Z,2.03
2018-06-29T15:04:48.960Z,1.70
2018-06-29T15:07:18.732Z,2.23
2018-06-29T15:09:51.674Z,1.90
2018-06-29T15:12:22.236Z,2.20
2018-06-29T15:14:52.238Z,2.20
2018-06-29T15:17:22.415Z,2.43
2018-06-29T15:19:51.429Z,2.03
2018-06-29T15:22:20.272Z,2.27
2018-06-29T15:24:50.672Z,2.50
2018-06-29T15:27:20.124Z,2.00
2018-06-29T15:29:49.579Z,2.00
2018-06-29T15:32:18.938Z,1.83
2018-06-29T15:34:47.985Z,2.23
2018-06-29T15:37:17.866Z,2.67
2018-06-29T15:40:10.675Z,2.83
2018-06-29T15:51:07.481Z,2.50
2018-06-29T15:53:40.989Z,2.93
2018-06-29T15:56:41.456Z,3.07
2018-06-29T15:59:11.194Z,2.93
2018-06-29T16:01:41.554Z,2.93
2018-06-29T16:04:14.290Z,2.73
2018-06-29T16:06:43.700Z,3.00
2018-06-29T16:09:15.948Z,2.93
2018-06-29T16:11:58.286Z,3.10
2018-06-29T16:14:28.360Z,3.33
2018-06-29T16:16:57.902Z,3.20
2018-06-29T16:19:27.280Z,3.73
2018-06-29T16:21:56.777Z,3.53
2018-06-29T16:24:26.125Z,3.97
2018-06-29T16:26:55.218Z,3.20
2018-06-29T16:29:24.490Z,2.60
2018-06-29T16:31:53.888Z,3.07
2018-06-29T16:34:23.317Z,2.63
2018-06-29T16:36:52.770Z,3.43
2018-06-29T16:39:22.238Z,2.87
2018-06-29T16:41:51.356Z,2.80
2018-06-29T16:44:20.276Z,2.50
2018-06-29T16:46:49.515Z,2.50
2018-06-29T16:49:19.149Z,2.60
2018-06-29T16:51:50.106Z,2.30
2018-06-29T16:54:19.426Z,2.60
2018-06-29T16:56:48.958Z,2.60
2018-06-29T16:59:18.676Z,2.23
2018-06-29T17:01:47.918Z,2.50
2018-06-29T17:04:17.339Z,2.57
2018-06-29T17:06:46.674Z,2.30
2018-06-29T17:09:15.984Z,3.10
2018-06-29T17:11:45.739Z,2.50
2018-06-29T17:14:15.086Z,3.60
2018-06-29T17:16:44.156Z,3.20
2018-06-29T17:19:13.463Z,2.50
2018-06-29T17:21:42.964Z,2.67
2018-06-29T17:24:12.301Z,2.70
2018-06-29T17:26:41.609Z,2.60
2018-06-29T17:29:11.412Z,2.50
2018-06-29T17:31:40.853Z,2.73
2018-06-29T17:34:10.776Z,2.97
2018-06-29T17:36:40.632Z,2.23
2018-06-29T17:39:10.876Z,2.90
2018-06-29T17:41:41.202Z,2.53
2018-06-29T17:44:10.636Z,2.67
2018-06-29T17:46:44.748Z,2.97
2018-06-29T17:49:16.510Z,3.20
2018-06-29T17:51:47.610Z,3.03
2018-06-29T17:54:16.976Z,2.23
2018-06-29T17:56:46.419Z,2.63
2018-06-29T17:59:17.577Z,2.57
2018-06-29T18:01:47.702Z,2.73
2018-06-29T18:04:17.068Z,2.80
2018-06-29T18:06:46.436Z,2.80
2018-06-29T18:09:15.797Z,3.03
2018-06-29T18:11:45.169Z,2.60
2018-06-29T18:14:14.667Z,2.60
2018-06-29T18:16:44.838Z,2.70
2018-06-29T18:19:14.322Z,2.30
2018-06-29T18:21:43.688Z,2.10
2018-06-29T18:24:13.607Z,2.33
2018-06-29T18:26:43.210Z,2.33
2018-06-29T18:29:12.306Z,2.60
2018-06-29T18:31:42.224Z,2.17
2018-06-29T18:34:11.269Z,2.40
2018-06-29T18:36:40.901Z,2.50
2018-06-29T18:39:11.354Z,2.77
2018-06-29T18:41:40.372Z,2.60
2018-06-29T18:44:10.308Z,2.43
2018-06-29T18:46:40.198Z,2.10
2018-06-29T18:49:09.820Z,2.10
2018-06-29T18:51:39.870Z,2.20
2018-06-29T18:54:09.948Z,2.37
2018-06-29T18:56:39.504Z,2.20
2018-06-29T18:59:08.872Z,2.03
2018-06-29T19:01:38.375Z,3.07
2018-06-29T19:04:08.641Z,2.60
2018-06-29T19:06:37.767Z,2.50
2018-06-29T19:09:08.520Z,2.20
2018-06-29T19:11:38.906Z,2.40
2018-06-29T19:14:11.372Z,2.53
2018-06-29T19:16:44.529Z,2.27
2018-06-29T19:19:13.990Z,1.97
2018-06-29T19:21:46.105Z,1.90
2018-06-29T19:24:15.481Z,2.13
2018-06-29T19:26:46.497Z,2.10
2018-06-29T19:29:16.498Z,2.00
2018-06-29T19:32:14.347Z,2.57
2018-06-29T19:34:45.842Z,2.73
2018-06-29T19:37:15.816Z,2.47
2018-06-29T19:39:47.446Z,2.10
2018-06-29T19:42:18.263Z,2.10
2018-06-29T19:44:49.300Z,2.10
2018-06-29T19:47:22.043Z,2.50
2018-06-29T19:49:51.761Z,2.20
2018-06-29T19:52:23.569Z,1.97
2018-06-29T19:54:57.783Z,1.93
2018-06-29T19:57:29.099Z,2.07
2018-06-29T19:59:59.757Z,1.90
2018-06-29T20:02:29.290Z,2.07
2018-06-29T20:04:58.377Z,1.63
2018-06-29T20:07:29.771Z,1.80
2018-06-29T20:09:59.118Z,2.10
2018-06-29T20:12:32.309Z,1.63
2018-06-29T20:15:01.339Z,1.93
2018-06-29T20:17:34.021Z,1.40
2018-06-29T20:20:04.186Z,1.50
2018-06-29T20:22:34.263Z,2.10
2018-06-29T20:25:03.683Z,1.20
2018-06-29T20:27:33.209Z,1.40
2018-06-29T20:30:04.086Z,1.70
2018-06-29T20:32:33.626Z,1.47
2018-06-29T20:35:03.179Z,1.67
2018-06-29T20:37:41.647Z,1.60
2018-06-29T20:40:12.863Z,1.67
2018-06-29T20:42:49.691Z,1.40
2018-06-29T20:45:19.684Z,2.10
2018-06-29T20:47:50.697Z,2.00
2018-06-29T20:50:20.569Z,1.67
2018-06-29T20:52:51.887Z,1.60
2018-06-29T20:58:01.554Z,1.43
2018-06-29T21:00:31.390Z,1.87
2018-06-29T21:03:02.845Z,2.07
2018-06-29T21:05:43.359Z,1.47
2018-06-29T21:08:13.396Z,1.50
2018-06-29T21:10:44.623Z,2.00
2018-06-29T21:13:18.035Z,1.70
2018-06-29T21:15:50.256Z,1.80
2018-06-29T21:18:20.152Z,2.03
2018-06-29T21:20:57.809Z,1.63
2018-06-29T21:23:27.799Z,1.80
2018-06-29T21:25:57.736Z,1.60
2018-06-29T21:28:44.186Z,1.97
2018-06-29T21:31:19.487Z,3.90
2018-06-29T21:33:48.982Z,1.60
2018-06-29T21:36:18.458Z,3.83
2018-06-29T21:38:47.825Z,2.10
2018-06-29T21:41:17.296Z,2.07
2018-06-29T21:43:47.393Z,1.90
2018-06-29T21:46:17.555Z,1.60
2018-06-29T21:48:46.941Z,1.70
2018-06-29T21:51:16.290Z,1.80
2018-06-29T21:53:45.939Z,1.93
2018-06-29T21:56:16.744Z,1.93
2018-06-29T21:58:46.106Z,1.50
2018-06-29T22:01:15.560Z,1.90
2018-06-29T22:03:44.830Z,1.83
2018-06-29T22:06:13.936Z,2.10
2018-06-29T22:08:48.955Z,1.80
2018-06-29T22:11:19.084Z,1.63
2018-06-29T22:13:48.192Z,1.50
2018-06-29T22:16:18.175Z,1.57
2018-06-29T22:18:47.420Z,1.63
2018-06-29T22:21:16.777Z,1.70
2018-06-29T22:23:48.099Z,1.67
2018-06-29T22:26:17.430Z,1.47
2018-06-29T22:28:46.800Z,1.33
2018-06-29T22:31:16.265Z,2.03
2018-06-29T22:33:45.634Z,1.90
2018-06-29T22:36:14.629Z,1.50
2018-06-29T22:38:44.129Z,1.60
2018-06-29T22:41:14.336Z,1.77
2018-06-29T22:43:43.741Z,1.43
2018-06-29T22:46:13.109Z,1.50
2018-06-29T22:48:42.461Z,1.30
2018-06-29T22:51:11.450Z,1.40
2018-06-29T22:53:40.647Z,1.20
2018-06-29T22:56:10.077Z,1.47
2018-06-29T22:58:39.125Z,1.43
2018-06-29T23:01:08.556Z,1.60
2018-06-29T23:03:43.112Z,1.20
2018-06-29T23:06:12.612Z,1.40
2018-06-29T23:08:42.116Z,1.27
2018-06-29T23:11:11.514Z,1.20
2018-06-29T23:13:40.998Z,1.40
2018-06-29T23:16:10.433Z,1.30
2018-06-29T23:18:39.736Z,1.10
2018-06-29T23:21:09.148Z,1.30
2018-06-29T23:23:39.255Z,1.17
2018-06-29T23:26:08.651Z,1.27
2018-06-29T23:28:38.205Z,1.30
2018-06-29T23:31:08.560Z,1.30
2018-06-29T23:33:37.965Z,1.23
2018-06-29T23:36:07.356Z,1.50
2018-06-29T23:38:46.328Z,1.30
2018-06-29T23:41:16.873Z,1.40
2018-06-29T23:43:47.248Z,1.00
2018-06-29T23:46:17.701Z,1.10
2018-06-29T23:48:47.177Z,1.23
2018-06-29T23:51:17.425Z,1.40
2018-06-29T23:53:46.801Z,1.60
2018-06-29T23:56:16.212Z,1.37
2018-06-29T23:58:45.555Z,1.40
